createdAt,value
2024-01-08T00:01:50.315Z,96.45
2024-01-08T00:04:22.893Z,97.22
2024-01-08T00:06:54.512Z,98.02
2024-01-08T00:09:24.814Z,98.89
2024-01-08T00:11:54.552Z,99.43
2024-01-08T00:14:25.040Z,99.99
2024-01-08T00:16:53.379Z,99.99
2024-01-08T00:19:24.516Z,99.99
2024-01-08T00:21:53.046Z,99.99
2024-01-08T00:24:21.617Z,99.99
2024-01-08T00:26:51.764Z,99.99
2024-01-08T00:29:20.726Z,99.99
2024-01-08T00:31:49.295Z,99.99
2024-01-08T00:34:18.367Z,99.99
2024-01-08T00:36:47.908Z,99.99
2024-01-08T00:39:17.456Z,99.99
2024-01-08T00:41:47.048Z,99.99
2024-01-08T00:44:18.755Z,99.99
2024-01-08T00:46:47.614Z,99.99
2024-01-08T00:49:16.176Z,99.99
2024-01-08T00:51:45.352Z,99.99
2024-01-08T00:54:14.485Z,99.99
2024-01-08T00:56:45.315Z,99.99
2024-01-08T00:59:16.878Z,99.99
2024-01-08T01:01:45.441Z,99.99
2024-01-08T01:04:14.148Z,99.99
2024-01-08T01:06:43.322Z,99.99
2024-01-08T01:09:11.853Z,99.99
2024-01-08T01:11:40.299Z,99.99
2024-01-08T01:14:08.696Z,99.99
2024-01-08T01:16:38.912Z,99.99
2024-01-08T01:19:08.224Z,99.99
2024-01-08T01:21:37.031Z,99.99
2024-01-08T01:24:07.702Z,99.99
2024-01-08T01:26:38.450Z,99.99
2024-01-08T01:29:08.268Z,99.99
2024-01-08T01:31:39.788Z,99.99
2024-01-08T01:34:11.710Z,99.99
2024-01-08T01:36:41.237Z,99.99
2024-01-08T01:39:11.963Z,99.99
2024-01-08T01:41:41.759Z,99.99
2024-01-08T01:44:11.146Z,99.99
2024-01-08T01:46:45.689Z,99.99
2024-01-08T01:49:20.189Z,99.99
2024-01-08T01:51:51.664Z,99.99
2024-01-08T01:54:26.721Z,99.99
2024-01-08T01:56:59.770Z,99.99
2024-01-08T01:59:30.156Z,99.99
2024-01-08T02:02:01.502Z,99.99
2024-01-08T02:04:32.279Z,99.99
2024-01-08T02:07:03.712Z,99.89
2024-01-08T02:09:32.279Z,99.99
2024-01-08T02:12:01.126Z,99.82
2024-01-08T02:14:30.183Z,99.53
2024-01-08T02:17:00.101Z,99.48
2024-01-08T02:19:28.383Z,99.63
2024-01-08T02:21:57.490Z,99.99
2024-01-08T02:24:29.643Z,99.85
2024-01-08T02:26:59.018Z,99.99
2024-01-08T02:29:31.987Z,99.31
2024-01-08T02:32:01.848Z,99.54
2024-01-08T02:34:30.702Z,98.55
2024-01-08T02:36:59.593Z,99.99
2024-01-08T02:39:30.487Z,98.97
2024-01-08T02:41:59.053Z,98.82
2024-01-08T02:44:27.603Z,98.95
2024-01-08T02:46:56.282Z,99.16
2024-01-08T02:49:25.291Z,98.53
2024-01-08T02:51:53.801Z,98.71
2024-01-08T02:54:23.688Z,98.47
2024-01-08T02:56:55.518Z,98.25
2024-01-08T02:59:24.465Z,97.92
2024-01-08T03:01:54.148Z,98.08
2024-01-08T03:04:22.654Z,98.50
2024-01-08T03:06:51.844Z,98.06
2024-01-08T03:09:20.576Z,98.06
2024-01-08T03:11:50.745Z,98.05
2024-01-08T03:14:23.707Z,98.28
2024-01-08T03:16:52.847Z,97.92
2024-01-08T03:19:23.292Z,98.25
2024-01-08T03:21:51.593Z,98.67
2024-01-08T03:24:20.162Z,97.95
2024-01-08T03:26:49.907Z,98.01
2024-01-08T03:29:18.772Z,98.06
2024-01-08T03:31:49.816Z,98.20
2024-01-08T03:34:18.756Z,99.33
2024-01-08T03:36:48.660Z,98.33
2024-01-08T03:39:17.802Z,97.86
2024-01-08T03:41:46.747Z,98.22
2024-01-08T03:44:16.969Z,97.48
2024-01-08T03:46:46.276Z,97.52
2024-01-08T03:49:17.036Z,98.11
2024-01-08T03:51:45.565Z,97.09
2024-01-08T03:54:15.527Z,97.73
2024-01-08T03:56:45.567Z,97.08
2024-01-08T03:59:15.060Z,97.96
2024-01-08T04:01:47.863Z,97.44
2024-01-08T04:04:19.156Z,97.23
2024-01-08T04:06:49.700Z,96.91
2024-01-08T04:09:19.118Z,97.17
2024-01-08T04:11:48.099Z,96.19
2024-01-08T04:14:18.402Z,95.34
2024-01-08T04:16:46.556Z,95.60
2024-01-08T04:19:15.514Z,95.78
2024-01-08T04:21:47.272Z,95.36
2024-01-08T04:24:16.646Z,95.89
2024-01-08T04:26:46.599Z,95.59
2024-01-08T04:29:14.912Z,96.65
2024-01-08T04:31:45.530Z,95.52
2024-01-08T04:34:14.262Z,95.50
2024-01-08T04:36:46.938Z,95.98
2024-01-08T04:39:17.000Z,96.51
2024-01-08T04:41:45.715Z,95.47
2024-01-08T04:44:16.005Z,95.88
2024-01-08T04:46:44.920Z,95.55
2024-01-08T04:49:15.246Z,95.57
2024-01-08T04:51:43.556Z,95.51
2024-01-08T04:54:13.541Z,95.08
2024-01-08T04:56:44.093Z,94.82
2024-01-08T04:59:13.607Z,96.15
2024-01-08T05:01:42.430Z,95.25
2024-01-08T05:04:13.132Z,95.72
2024-01-08T05:06:44.029Z,95.74
2024-01-08T05:09:13.008Z,95.84
2024-01-08T05:11:47.365Z,94.70
2024-01-08T05:14:16.624Z,95.27
2024-01-08T05:16:46.854Z,95.55
2024-01-08T05:19:15.921Z,94.96
2024-01-08T05:21:44.546Z,95.35
2024-01-08T05:24:14.499Z,95.70
2024-01-08T05:26:45.169Z,95.70
2024-01-08T05:29:14.794Z,94.83
2024-01-08T05:31:44.306Z,94.65
2024-01-08T05:34:12.923Z,95.02
2024-01-08T05:36:43.344Z,94.67
2024-01-08T05:39:12.793Z,94.82
2024-01-08T05:41:42.408Z,94.56
2024-01-08T05:44:14.411Z,95.14
2024-01-08T05:46:45.984Z,95.05
2024-01-08T05:49:15.897Z,95.36
2024-01-08T05:51:44.405Z,94.93
2024-01-08T05:54:14.049Z,94.48
2024-01-08T05:56:42.456Z,94.76
2024-01-08T05:59:13.331Z,95.28
2024-01-08T06:01:43.812Z,94.98
2024-01-08T06:04:12.503Z,94.56
2024-01-08T06:06:40.818Z,95.00
2024-01-08T06:09:10.415Z,94.80
2024-01-08T06:11:40.084Z,95.43
2024-01-08T06:14:08.933Z,95.04
2024-01-08T06:16:39.333Z,94.98
2024-01-08T06:19:09.401Z,95.24
2024-01-08T06:21:38.057Z,94.52
2024-01-08T06:24:07.137Z,95.21
2024-01-08T06:26:39.586Z,94.67
2024-01-08T06:29:08.153Z,94.96
2024-01-08T06:31:37.991Z,94.63
2024-01-08T06:34:07.882Z,95.11
2024-01-08T06:36:36.940Z,95.11
2024-01-08T06:39:05.872Z,94.76
2024-01-08T06:41:34.503Z,94.23
2024-01-08T06:44:05.148Z,94.23
2024-01-08T06:46:33.777Z,94.83
2024-01-08T06:49:06.281Z,94.28
2024-01-08T06:51:44.389Z,95.51
2024-01-08T06:54:12.567Z,94.26
2024-01-08T06:56:42.680Z,94.20
2024-01-08T06:59:12.396Z,95.03
2024-01-08T07:01:42.050Z,93.67
2024-01-08T07:04:11.966Z,94.44
2024-01-08T07:06:41.753Z,93.62
2024-01-08T07:09:10.069Z,93.86
2024-01-08T07:11:38.838Z,93.22
2024-01-08T07:14:08.903Z,93.75
2024-01-08T07:16:37.745Z,93.90
2024-01-08T07:19:06.405Z,93.94
2024-01-08T07:21:36.595Z,93.16
2024-01-08T07:24:05.985Z,93.48
2024-01-08T07:26:34.792Z,93.70
2024-01-08T07:29:04.841Z,93.74
2024-01-08T07:31:33.142Z,93.96
2024-01-08T07:34:01.472Z,93.11
2024-01-08T07:36:31.014Z,92.37
2024-01-08T07:39:01.561Z,91.60
2024-01-08T07:41:31.097Z,92.50
2024-01-08T07:43:59.842Z,92.05
2024-01-08T07:46:28.176Z,92.46
2024-01-08T07:48:57.911Z,92.01
2024-01-08T07:51:28.675Z,92.22
2024-01-08T07:53:58.514Z,92.96
2024-01-08T07:56:28.763Z,91.65
2024-01-08T07:58:58.993Z,91.77
2024-01-08T08:01:27.454Z,92.46
2024-01-08T08:03:57.257Z,91.93
2024-01-08T08:06:27.896Z,91.65
2024-01-08T08:08:56.509Z,91.42
2024-01-08T08:11:25.440Z,91.25
2024-01-08T08:13:55.841Z,90.82
2024-01-08T08:16:25.687Z,91.11
2024-01-08T08:18:54.341Z,90.37
2024-01-08T08:21:22.620Z,90.40
2024-01-08T08:23:52.110Z,90.57
2024-01-08T08:26:22.026Z,90.34
2024-01-08T08:28:52.118Z,90.90
2024-01-08T08:31:22.253Z,91.03
2024-01-08T08:33:54.009Z,91.15
2024-01-08T08:36:23.039Z,91.39
2024-01-08T08:38:55.386Z,90.93
2024-01-08T08:41:24.571Z,91.47
2024-01-08T08:43:55.195Z,90.95
2024-01-08T08:46:25.048Z,91.16
2024-01-08T08:48:55.922Z,91.11
2024-01-08T08:51:24.440Z,90.54
2024-01-08T08:53:56.089Z,90.70
2024-01-08T08:56:25.739Z,90.11
2024-01-08T08:58:55.818Z,90.02
2024-01-08T09:01:26.659Z,90.62
2024-01-08T09:03:56.956Z,90.19
2024-01-08T09:06:25.968Z,90.26
2024-01-08T09:08:55.927Z,90.00
2024-01-08T09:11:25.627Z,90.39
2024-01-08T09:13:55.292Z,90.00
2024-01-08T09:16:24.626Z,90.36
2024-01-08T09:18:56.665Z,89.98
2024-01-08T09:21:25.840Z,89.90
2024-01-08T09:23:55.029Z,89.79
2024-01-08T09:26:23.687Z,90.39
2024-01-08T09:28:51.914Z,90.08
2024-01-08T09:31:21.793Z,89.64
2024-01-08T09:33:50.286Z,89.86
2024-01-08T09:36:19.949Z,88.87
2024-01-08T09:38:48.442Z,86.25
2024-01-08T09:41:23.678Z,85.42
2024-01-08T09:44:00.278Z,85.49
2024-01-08T09:46:30.757Z,86.10
2024-01-08T09:49:00.411Z,85.66
2024-01-08T09:51:31.071Z,85.65
2024-01-08T09:54:01.427Z,85.22
2024-01-08T09:56:31.492Z,86.55
2024-01-08T09:59:00.782Z,84.78
2024-01-08T10:01:29.312Z,85.03
2024-01-08T10:03:59.342Z,85.30
2024-01-08T10:06:29.870Z,85.39
2024-01-08T10:08:59.473Z,84.38
2024-01-08T10:11:31.879Z,86.00
2024-01-08T10:14:01.174Z,83.93
2024-01-08T10:16:44.595Z,84.08
2024-01-08T10:19:19.677Z,83.47
2024-01-08T10:22:08.118Z,83.80
2024-01-08T10:24:37.947Z,82.62
2024-01-08T10:27:07.318Z,82.84
2024-01-08T10:29:36.304Z,83.45
2024-01-08T10:32:06.410Z,82.89
2024-01-08T10:34:37.298Z,82.74
2024-01-08T10:37:07.543Z,82.93
2024-01-08T10:39:47.478Z,82.73
2024-01-08T10:42:22.266Z,80.53
2024-01-08T10:44:50.582Z,82.13
2024-01-08T10:47:28.735Z,81.73
2024-01-08T10:50:04.458Z,80.70
2024-01-08T10:52:38.319Z,80.28
2024-01-08T10:55:12.993Z,80.42
2024-01-08T10:57:50.488Z,81.12
2024-01-08T11:00:20.197Z,78.96
2024-01-08T11:02:48.923Z,80.30
2024-01-08T11:05:18.689Z,80.66
2024-01-08T11:07:52.538Z,79.46
2024-01-08T11:10:25.180Z,78.07
2024-01-08T11:12:54.185Z,78.13
2024-01-08T11:15:25.604Z,77.36
2024-01-08T11:17:55.695Z,78.15
2024-01-08T11:20:43.871Z,75.62
2024-01-08T11:23:39.435Z,76.33
2024-01-08T11:26:16.015Z,79.96
2024-01-08T11:28:44.556Z,82.09
2024-01-08T11:31:52.299Z,80.69
2024-01-08T11:34:58.968Z,81.69
2024-01-08T11:37:35.396Z,81.26
2024-01-08T11:40:12.299Z,81.04
2024-01-08T11:42:41.948Z,81.98
2024-01-08T11:45:10.924Z,81.87
2024-01-08T11:47:41.109Z,82.15
2024-01-08T11:50:11.669Z,81.69
2024-01-08T11:52:41.935Z,82.05
2024-01-08T11:55:12.165Z,81.52
2024-01-08T11:57:42.376Z,81.59
2024-01-08T12:00:15.207Z,82.30
2024-01-08T12:02:44.577Z,81.56
2024-01-08T12:05:15.984Z,81.03
2024-01-08T12:07:44.657Z,81.21
2024-01-08T12:10:14.690Z,80.48
2024-01-08T12:12:43.567Z,81.49
2024-01-08T12:15:14.039Z,80.59
2024-01-08T12:17:43.385Z,81.13
2024-01-08T12:20:13.583Z,81.50
2024-01-08T12:22:42.406Z,81.37
2024-01-08T12:25:16.197Z,81.48
2024-01-08T12:27:46.723Z,81.44
2024-01-08T12:30:16.823Z,81.17
2024-01-08T12:32:45.628Z,81.49
2024-01-08T12:35:16.614Z,80.80
2024-01-08T12:37:47.146Z,80.88
2024-01-08T12:40:16.968Z,79.66
2024-01-08T12:42:46.941Z,79.41
2024-01-08T12:45:17.656Z,79.60
2024-01-08T12:47:47.201Z,79.79
2024-01-08T12:50:16.970Z,80.78
2024-01-08T12:52:47.527Z,80.51
2024-01-08T12:55:20.518Z,79.08
2024-01-08T12:57:49.279Z,79.62
2024-01-08T13:00:19.481Z,80.44
2024-01-08T13:02:53.701Z,80.72
2024-01-08T13:05:23.719Z,79.41
2024-01-08T13:07:54.181Z,79.01
2024-01-08T13:10:25.417Z,78.95
2024-01-08T13:12:55.743Z,78.43
2024-01-08T13:15:24.559Z,78.23
2024-01-08T13:17:53.238Z,78.97
2024-01-08T13:20:26.913Z,79.16
2024-01-08T13:22:58.836Z,79.02
2024-01-08T13:25:29.270Z,77.46
2024-01-08T13:27:58.624Z,77.21
2024-01-08T13:30:30.793Z,78.04
2024-01-08T13:32:59.552Z,77.16
2024-01-08T13:35:29.896Z,78.80
2024-01-08T13:38:01.659Z,79.08
2024-01-08T13:40:32.813Z,76.76
2024-01-08T13:43:08.087Z,73.00
2024-01-08T13:45:37.429Z,73.57
2024-01-08T13:48:07.040Z,75.31
2024-01-08T13:50:35.603Z,74.54
2024-01-08T13:53:05.040Z,74.68
2024-01-08T13:55:35.283Z,74.68
2024-01-08T13:58:05.311Z,74.08
2024-01-08T14:00:33.840Z,73.51
2024-01-08T14:03:03.610Z,75.23
2024-01-08T14:05:32.980Z,73.65
2024-01-08T14:08:01.790Z,74.44
2024-01-08T14:10:30.859Z,74.75
2024-01-08T14:13:02.640Z,72.76
2024-01-08T14:15:31.065Z,72.21
2024-01-08T14:18:00.940Z,71.79
2024-01-08T14:20:30.087Z,70.52
2024-01-08T14:22:59.451Z,70.37
2024-01-08T14:25:28.390Z,71.13
2024-01-08T14:27:57.381Z,70.98
2024-01-08T14:30:27.519Z,71.68
2024-01-08T14:32:57.108Z,70.93
2024-01-08T14:35:25.722Z,71.48
2024-01-08T14:37:55.086Z,73.03
2024-01-08T14:40:29.110Z,72.78
2024-01-08T14:43:00.884Z,72.54
2024-01-08T14:45:30.928Z,72.75
2024-01-08T14:47:59.805Z,73.01
2024-01-08T14:50:29.346Z,71.39
2024-01-08T14:52:58.004Z,71.64
2024-01-08T14:55:26.355Z,72.08
2024-01-08T14:57:55.013Z,73.04
2024-01-08T15:00:25.228Z,74.51
2024-01-08T15:02:56.452Z,71.59
2024-01-08T15:05:25.955Z,71.98
2024-01-08T15:07:55.995Z,71.04
2024-01-08T15:10:24.557Z,72.54
2024-01-08T15:12:53.776Z,72.45
2024-01-08T15:15:24.580Z,70.10
2024-01-08T15:17:56.181Z,71.21
2024-01-08T15:20:24.695Z,70.79
2024-01-08T15:22:53.275Z,72.09
2024-01-08T15:25:24.531Z,71.29
2024-01-08T15:27:55.217Z,71.75
2024-01-08T15:30:24.210Z,71.38
2024-01-08T15:32:55.564Z,72.45
2024-01-08T15:35:25.020Z,71.34
2024-01-08T15:37:55.915Z,71.52
2024-01-08T15:40:24.152Z,72.08
2024-01-08T15:42:54.671Z,73.03
2024-01-08T15:45:23.725Z,71.58
2024-01-08T15:47:52.738Z,73.25
2024-01-08T15:50:25.443Z,73.45
2024-01-08T15:52:58.914Z,73.06
2024-01-08T15:55:27.481Z,73.07
2024-01-08T15:57:56.058Z,73.29
2024-01-08T16:00:24.506Z,74.73
2024-01-08T16:02:58.027Z,75.19
2024-01-08T16:05:29.178Z,74.44
2024-01-08T16:07:57.426Z,76.43
2024-01-08T16:10:25.690Z,74.70
2024-01-08T16:12:56.361Z,75.14
2024-01-08T16:15:25.064Z,74.14
2024-01-08T16:17:53.542Z,74.82
2024-01-08T16:20:22.586Z,74.78
2024-01-08T16:22:54.014Z,73.50
2024-01-08T16:25:23.672Z,69.64
2024-01-08T16:27:52.755Z,68.94
2024-01-08T16:30:24.313Z,68.77
2024-01-08T16:32:55.913Z,66.32
2024-01-08T16:35:25.259Z,66.91
2024-01-08T16:37:57.516Z,66.96
2024-01-08T16:40:25.758Z,67.68
2024-01-08T16:42:56.905Z,66.98
2024-01-08T16:45:26.223Z,66.38
2024-01-08T16:47:57.965Z,65.66
2024-01-08T16:50:27.729Z,67.32
2024-01-08T16:52:57.661Z,67.16
2024-01-08T16:55:26.367Z,69.18
2024-01-08T16:57:54.979Z,67.90
2024-01-08T17:00:27.148Z,67.43
2024-01-08T17:02:56.283Z,67.53
2024-01-08T17:05:28.098Z,67.99
2024-01-08T17:07:58.169Z,65.46
2024-01-08T17:10:28.425Z,66.26
2024-01-08T17:12:56.718Z,66.28
2024-01-08T17:15:25.779Z,65.60
2024-01-08T17:17:55.910Z,66.21
2024-01-08T17:20:24.646Z,66.57
2024-01-08T17:22:54.658Z,65.11
2024-01-08T17:25:25.220Z,62.82
2024-01-08T17:27:54.862Z,64.93
2024-01-08T17:30:23.385Z,64.81
2024-01-08T17:32:52.108Z,63.67
2024-01-08T17:35:20.746Z,65.06
2024-01-08T17:37:49.366Z,62.89
2024-01-08T17:40:19.577Z,64.60
2024-01-08T17:42:49.791Z,64.16
2024-01-08T17:45:18.234Z,64.79
2024-01-08T17:47:48.102Z,65.16
2024-01-08T17:50:17.186Z,64.26
2024-01-08T17:52:45.640Z,64.81
2024-01-08T17:55:13.996Z,65.62
2024-01-08T17:57:42.590Z,65.65
2024-01-08T18:00:15.872Z,65.52
2024-01-08T18:02:44.630Z,65.66
2024-01-08T18:05:14.607Z,64.33
2024-01-08T18:07:43.775Z,66.08
2024-01-08T18:10:12.367Z,65.30
2024-01-08T18:12:43.590Z,64.34
2024-01-08T18:15:14.225Z,65.76
2024-01-08T18:17:46.777Z,66.31
2024-01-08T18:20:15.700Z,66.53
2024-01-08T18:22:44.731Z,66.16
2024-01-08T18:25:16.264Z,66.64
2024-01-08T18:27:44.613Z,67.32
2024-01-08T18:30:15.724Z,67.24
2024-01-08T18:32:45.636Z,67.12
2024-01-08T18:35:14.361Z,67.03
2024-01-08T18:37:43.933Z,68.69
2024-01-08T18:40:15.928Z,68.27
2024-01-08T18:42:44.647Z,67.80
2024-01-08T18:45:18.310Z,68.12
2024-01-08T18:47:47.446Z,69.02
2024-01-08T18:50:18.024Z,69.09
2024-01-08T18:52:46.753Z,68.78
2024-01-08T18:55:15.638Z,69.04
2024-01-08T18:57:46.418Z,68.65
2024-01-08T19:00:18.591Z,69.83
2024-01-08T19:02:48.061Z,69.53
2024-01-08T19:05:18.725Z,69.21
2024-01-08T19:07:49.548Z,68.88
2024-01-08T19:10:21.198Z,69.28
2024-01-08T19:12:51.642Z,69.68
2024-01-08T19:15:22.138Z,69.71
2024-01-08T19:17:51.113Z,69.97
2024-01-08T19:20:23.346Z,70.43
2024-01-08T19:22:55.700Z,70.60
2024-01-08T19:25:26.506Z,70.97
2024-01-08T19:27:56.677Z,70.90
2024-01-08T19:30:26.345Z,71.38
2024-01-08T19:32:54.810Z,71.49
2024-01-08T19:35:23.994Z,71.48
2024-01-08T19:37:53.105Z,71.99
2024-01-08T19:40:22.389Z,71.54
2024-01-08T19:42:52.872Z,72.50
2024-01-08T19:45:21.770Z,71.34
2024-01-08T19:47:52.139Z,71.58
2024-01-08T19:50:20.929Z,72.13
2024-01-08T19:52:50.288Z,72.31
2024-01-08T19:55:19.265Z,72.23
2024-01-08T19:57:47.829Z,72.42
2024-01-08T20:00:19.998Z,72.68
2024-01-08T20:02:50.605Z,72.21
2024-01-08T20:07:48.709Z,73.23
2024-01-08T20:10:17.506Z,72.78
2024-01-08T20:12:47.988Z,72.84
2024-01-08T20:15:19.262Z,73.35
2024-01-08T20:17:48.068Z,72.75
2024-01-08T20:20:17.693Z,73.64
2024-01-08T20:22:48.021Z,73.78
2024-01-08T20:25:18.976Z,74.33
2024-01-08T20:27:48.831Z,74.28
2024-01-08T20:30:18.282Z,74.44
2024-01-08T20:32:49.906Z,74.66
2024-01-08T20:35:18.767Z,74.73
2024-01-08T20:37:48.854Z,74.49
2024-01-08T20:40:18.743Z,74.77
2024-01-08T20:42:47.428Z,75.15
2024-01-08T20:45:16.428Z,74.90
2024-01-08T20:47:46.030Z,75.61
2024-01-08T20:50:15.264Z,76.42
2024-01-08T20:52:43.711Z,75.48
2024-01-08T20:55:13.406Z,76.02
2024-01-08T20:57:42.326Z,75.77
2024-01-08T21:00:11.914Z,75.79
2024-01-08T21:02:43.399Z,76.55
2024-01-08T21:05:13.701Z,75.37
2024-01-08T21:07:43.216Z,75.33
2024-01-08T21:10:13.580Z,76.05
2024-01-08T21:12:42.385Z,75.13
2024-01-08T21:15:13.502Z,75.02
2024-01-08T21:17:43.811Z,75.26
2024-01-08T21:20:16.370Z,75.16
2024-01-08T21:22:45.220Z,74.94
2024-01-08T21:25:15.512Z,74.39
2024-01-08T21:27:45.961Z,74.30
2024-01-08T21:30:15.166Z,73.57
2024-01-08T21:32:43.825Z,72.41
2024-01-08T21:35:12.448Z,73.09
2024-01-08T21:37:41.440Z,72.28
2024-01-08T21:40:12.213Z,71.33
2024-01-08T21:42:42.106Z,71.19
2024-01-08T21:45:12.603Z,70.84
2024-01-08T21:47:42.759Z,69.10
2024-01-08T21:50:13.181Z,68.88
2024-01-08T21:52:43.896Z,68.93
2024-01-08T21:55:13.640Z,66.94
2024-01-08T21:57:43.516Z,66.58
2024-01-08T22:00:13.370Z,67.17
2024-01-08T22:02:41.843Z,66.01
2024-01-08T22:05:12.933Z,64.03
2024-01-08T22:07:41.974Z,65.66
2024-01-08T22:10:11.471Z,65.56
2024-01-08T22:12:42.797Z,64.73
2024-01-08T22:15:13.667Z,64.82
2024-01-08T22:17:41.034Z,63.56
2024-01-08T22:20:10.825Z,62.32
2024-01-08T22:22:39.077Z,62.87
2024-01-08T22:25:12.040Z,62.20
2024-01-08T22:27:40.581Z,61.76
2024-01-08T22:30:13.435Z,62.77
2024-01-08T22:32:46.131Z,61.32
2024-01-08T22:35:14.990Z,61.63
2024-01-08T22:37:43.727Z,61.51
2024-01-08T22:40:13.308Z,60.84
2024-01-08T22:42:45.215Z,61.10
2024-01-08T22:45:14.155Z,59.05
2024-01-08T22:47:45.109Z,60.56
2024-01-08T22:50:14.503Z,60.15
2024-01-08T22:52:42.651Z,58.88
2024-01-08T22:55:14.109Z,58.39
2024-01-08T22:57:45.900Z,59.22
2024-01-08T23:00:14.901Z,59.81
2024-01-08T23:02:45.315Z,59.70
2024-01-08T23:05:16.693Z,59.65
2024-01-08T23:07:45.990Z,59.91
2024-01-08T23:10:15.171Z,58.57
2024-01-08T23:12:46.932Z,59.85
2024-01-08T23:15:21.308Z,59.58
2024-01-08T23:17:54.830Z,59.19
2024-01-08T23:20:24.490Z,58.65
2024-01-08T23:22:53.695Z,57.80
2024-01-08T23:25:24.457Z,58.83
2024-01-08T23:27:54.368Z,58.21
2024-01-08T23:30:23.159Z,59.27
2024-01-08T23:32:56.922Z,58.08
2024-01-08T23:35:25.742Z,58.59
2024-01-08T23:37:56.734Z,58.42
2024-01-08T23:40:25.461Z,57.99
2024-01-08T23:42:54.851Z,57.78
2024-01-08T23:45:25.941Z,58.33
2024-01-08T23:47:55.717Z,58.32
2024-01-08T23:50:24.568Z,57.72
2024-01-08T23:52:54.064Z,58.04
2024-01-08T23:55:22.301Z,58.12
2024-01-08T23:57:50.806Z,58.79
